createdAt,value
2023-04-16T00:01:28.040Z,76.20
2023-04-16T00:03:55.477Z,68.93
2023-04-16T00:06:23.200Z,70.75
2023-04-16T00:08:51.905Z,71.43
2023-04-16T00:11:18.616Z,74.28
2023-04-16T00:13:45.269Z,78.38
2023-04-16T00:16:11.858Z,74.95
2023-04-16T00:18:39.224Z,79.25
2023-04-16T00:21:07.251Z,78.88
2023-04-16T00:23:34.029Z,78.05
2023-04-16T00:26:00.736Z,78.35
2023-04-16T00:28:27.568Z,81.93
2023-04-16T00:30:55.108Z,81.00
2023-04-16T00:33:22.423Z,82.50
2023-04-16T00:35:49.270Z,84.55
2023-04-16T00:38:16.033Z,83.30
2023-04-16T00:40:42.883Z,78.75
2023-04-16T00:43:09.488Z,84.45
2023-04-16T00:45:36.938Z,85.13
2023-04-16T00:48:04.461Z,83.95
2023-04-16T00:50:31.359Z,88.78
2023-04-16T00:52:58.235Z,92.03
2023-04-16T00:55:24.967Z,91.55
2023-04-16T00:57:52.008Z,94.50
2023-04-16T01:00:18.686Z,94.28
2023-04-16T01:02:45.590Z,95.57
2023-04-16T01:05:12.350Z,94.10
2023-04-16T01:07:38.959Z,98.72
2023-04-16T01:10:06.285Z,102.93
2023-04-16T01:12:32.873Z,102.15
2023-04-16T01:14:59.643Z,97.55
2023-04-16T01:17:26.279Z,94.03
2023-04-16T01:19:52.919Z,99.13
2023-04-16T01:22:19.669Z,101.15
2023-04-16T01:24:46.296Z,97.80
2023-04-16T01:27:12.921Z,95.97
2023-04-16T01:29:39.715Z,93.90
2023-04-16T01:32:07.074Z,92.28
2023-04-16T01:34:36.541Z,95.15
2023-04-16T01:37:03.836Z,93.00
2023-04-16T01:39:30.485Z,96.10
2023-04-16T01:41:57.934Z,90.57
2023-04-16T01:44:25.367Z,91.90
2023-04-16T01:46:52.080Z,93.30
2023-04-16T01:49:18.908Z,87.07
2023-04-16T01:51:45.659Z,83.78
2023-04-16T01:54:12.763Z,88.15
2023-04-16T01:56:39.883Z,89.07
2023-04-16T01:59:06.625Z,89.75
2023-04-16T02:01:38.516Z,93.07
2023-04-16T02:04:05.493Z,94.63
2023-04-16T02:06:32.197Z,90.45
2023-04-16T02:08:58.917Z,92.78
2023-04-16T02:11:26.353Z,91.68
2023-04-16T02:13:53.473Z,84.28
2023-04-16T02:16:20.837Z,84.20
2023-04-16T02:18:53.356Z,81.45
2023-04-16T02:21:21.710Z,82.43
2023-04-16T02:23:51.505Z,82.47
2023-04-16T02:26:23.601Z,77.10
2023-04-16T02:28:50.942Z,83.93
2023-04-16T02:31:19.856Z,78.25
2023-04-16T02:33:48.024Z,81.03
2023-04-16T02:36:14.923Z,85.20
2023-04-16T02:38:41.725Z,82.28
2023-04-16T02:41:08.929Z,81.10
2023-04-16T02:43:35.691Z,84.20
2023-04-16T02:46:02.389Z,85.70
2023-04-16T02:48:29.056Z,85.07
2023-04-16T02:50:55.923Z,83.95
2023-04-16T02:53:22.556Z,85.28
2023-04-16T02:55:55.738Z,89.68
2023-04-16T02:58:25.228Z,85.38
2023-04-16T03:00:53.361Z,86.88
2023-04-16T03:03:21.189Z,91.88
2023-04-16T03:05:48.157Z,95.15
2023-04-16T03:08:16.369Z,94.18
2023-04-16T03:10:43.435Z,93.63
2023-04-16T03:13:10.160Z,86.25
2023-04-16T03:15:36.836Z,91.55
2023-04-16T03:18:03.720Z,91.95
2023-04-16T03:20:30.541Z,89.35
2023-04-16T03:22:57.237Z,93.15
2023-04-16T03:25:23.875Z,89.78
2023-04-16T03:27:51.270Z,83.13
2023-04-16T03:30:18.185Z,86.55
2023-04-16T03:32:45.018Z,84.30
2023-04-16T03:35:12.651Z,84.57
2023-04-16T03:37:39.409Z,82.38
2023-04-16T03:40:07.203Z,85.18
2023-04-16T03:42:34.412Z,80.88
2023-04-16T03:45:01.323Z,84.30
2023-04-16T03:47:28.275Z,83.38
2023-04-16T03:49:58.940Z,87.70
2023-04-16T03:52:27.997Z,87.20
2023-04-16T03:54:55.060Z,85.13
2023-04-16T03:57:26.187Z,85.28
2023-04-16T03:59:56.194Z,86.15
2023-04-16T04:02:23.861Z,84.10
2023-04-16T04:04:50.815Z,92.00
2023-04-16T04:07:17.946Z,88.70
2023-04-16T04:09:44.600Z,91.43
2023-04-16T04:12:11.247Z,85.95
2023-04-16T04:14:40.429Z,85.53
2023-04-16T04:17:08.768Z,89.07
2023-04-16T04:19:35.386Z,82.53
2023-04-16T04:22:03.364Z,87.50
2023-04-16T04:24:30.049Z,82.20
2023-04-16T04:26:58.109Z,86.88
2023-04-16T04:29:24.961Z,88.97
2023-04-16T04:31:51.892Z,90.57
2023-04-16T04:34:19.033Z,81.30
2023-04-16T04:36:45.885Z,76.45
2023-04-16T04:39:13.839Z,82.75
2023-04-16T04:41:43.144Z,82.88
2023-04-16T04:44:09.830Z,81.82
2023-04-16T04:46:36.534Z,76.38
2023-04-16T04:49:03.227Z,74.43
2023-04-16T04:51:31.753Z,69.63
2023-04-16T04:53:58.663Z,70.80
2023-04-16T04:56:25.512Z,67.00
2023-04-16T04:58:52.276Z,69.70
2023-04-16T05:01:20.252Z,73.03
2023-04-16T05:03:46.947Z,67.05
2023-04-16T05:06:13.765Z,68.45
2023-04-16T05:08:40.630Z,68.78
2023-04-16T05:11:07.224Z,64.25
2023-04-16T05:13:33.837Z,67.70
2023-04-16T05:16:01.192Z,66.70
2023-04-16T05:18:27.775Z,64.25
2023-04-16T05:20:54.589Z,66.38
2023-04-16T05:23:21.193Z,65.43
2023-04-16T05:25:47.784Z,65.95
2023-04-16T05:28:14.353Z,65.13
2023-04-16T05:30:41.134Z,70.22
2023-04-16T05:33:07.811Z,71.80
2023-04-16T05:35:34.979Z,70.32
2023-04-16T05:38:02.295Z,66.95
2023-04-16T05:40:29.256Z,65.50
2023-04-16T05:42:55.837Z,67.35
2023-04-16T05:45:22.461Z,65.00
2023-04-16T05:47:49.161Z,67.38
2023-04-16T05:50:15.881Z,66.20
2023-04-16T05:52:42.553Z,68.78
2023-04-16T05:55:09.730Z,69.63
2023-04-16T05:57:36.361Z,68.75
2023-04-16T06:00:03.769Z,70.50
2023-04-16T06:02:39.143Z,69.70
2023-04-16T06:05:06.250Z,74.13
2023-04-16T06:07:32.900Z,67.90
2023-04-16T06:09:59.517Z,76.93
2023-04-16T06:12:26.121Z,79.95
2023-04-16T06:14:52.743Z,82.15
2023-04-16T06:17:19.477Z,79.35
2023-04-16T06:19:46.185Z,81.38
2023-04-16T06:22:12.991Z,77.50
2023-04-16T06:24:39.677Z,73.80
2023-04-16T06:27:06.301Z,68.35
2023-04-16T06:29:40.498Z,66.85
2023-04-16T06:34:35.152Z,65.97
2023-04-16T06:37:01.779Z,68.28
2023-04-16T06:39:28.406Z,67.20
2023-04-16T06:41:55.869Z,66.80
2023-04-16T06:44:22.500Z,70.30
2023-04-16T06:46:50.149Z,73.72
2023-04-16T06:49:16.792Z,72.03
2023-04-16T06:51:43.440Z,71.25
2023-04-16T06:54:10.131Z,72.78
2023-04-16T06:56:37.348Z,71.55
2023-04-16T06:59:04.426Z,67.15
2023-04-16T07:01:31.322Z,68.72
2023-04-16T07:03:58.520Z,70.43
2023-04-16T07:06:27.003Z,71.55
2023-04-16T07:08:53.664Z,71.38
2023-04-16T07:11:20.866Z,71.80
2023-04-16T07:13:47.601Z,72.07
2023-04-16T07:16:14.273Z,76.25
2023-04-16T07:18:41.028Z,74.95
2023-04-16T07:21:07.637Z,76.03
2023-04-16T07:23:34.496Z,74.13
2023-04-16T07:26:01.146Z,75.40
2023-04-16T07:28:27.808Z,69.93
2023-04-16T07:30:54.740Z,68.63
2023-04-16T07:33:21.387Z,70.68
2023-04-16T07:35:48.054Z,67.45
2023-04-16T07:38:16.155Z,66.13
2023-04-16T07:40:42.997Z,68.90
2023-04-16T07:43:10.012Z,66.57
2023-04-16T07:45:36.745Z,66.93
2023-04-16T07:48:03.584Z,65.65
2023-04-16T07:50:30.234Z,62.75
2023-04-16T07:52:57.407Z,63.13
2023-04-16T07:55:24.231Z,59.53
2023-04-16T07:57:51.028Z,56.10
2023-04-16T08:00:18.273Z,58.35
2023-04-16T08:02:45.174Z,53.00
2023-04-16T08:05:12.678Z,53.95
2023-04-16T08:07:39.338Z,50.88
2023-04-16T08:10:06.610Z,49.25
2023-04-16T08:12:33.260Z,44.58
2023-04-16T08:14:59.906Z,43.05
2023-04-16T08:17:28.324Z,40.85
2023-04-16T08:19:55.041Z,38.85
2023-04-16T08:22:22.431Z,39.95
2023-04-16T08:24:49.128Z,40.80
2023-04-16T08:27:19.615Z,37.75
2023-04-16T08:29:47.730Z,36.20
2023-04-16T08:32:14.472Z,38.17
2023-04-16T08:34:42.265Z,31.65
2023-04-16T08:37:09.324Z,38.85
2023-04-16T08:39:35.993Z,33.65
2023-04-16T08:42:05.545Z,32.97
2023-04-16T08:44:35.254Z,34.13
2023-04-16T08:47:02.790Z,32.58
2023-04-16T08:49:29.742Z,35.00
2023-04-16T08:51:57.001Z,33.85
2023-04-16T08:54:43.225Z,32.13
2023-04-16T08:57:12.376Z,33.72
2023-04-16T08:59:40.024Z,34.33
2023-04-16T09:02:07.317Z,33.63
2023-04-16T09:04:34.264Z,33.08
2023-04-16T09:07:04.505Z,34.33
2023-04-16T09:09:33.418Z,34.95
2023-04-16T09:12:01.205Z,32.95
2023-04-16T09:14:28.214Z,35.33
2023-04-16T09:16:55.598Z,36.60
2023-04-16T09:19:23.272Z,33.70
2023-04-16T09:21:50.485Z,30.45
2023-04-16T09:24:17.504Z,32.60
2023-04-16T09:26:44.261Z,34.13
2023-04-16T09:29:11.057Z,33.72
2023-04-16T09:31:38.055Z,34.20
2023-04-16T09:34:08.023Z,36.58
2023-04-16T09:36:36.210Z,36.42
2023-04-16T09:39:03.809Z,34.35
2023-04-16T09:41:32.385Z,35.42
2023-04-16T09:44:04.394Z,36.83
2023-04-16T09:46:34.474Z,36.17
2023-04-16T09:49:13.952Z,36.75
2023-04-16T09:51:44.956Z,36.40
2023-04-16T09:54:11.711Z,39.13
2023-04-16T09:56:46.038Z,36.92
2023-04-16T09:59:23.495Z,37.08
2023-04-16T10:01:53.138Z,36.95
2023-04-16T10:04:24.132Z,37.75
2023-04-16T10:07:04.992Z,37.08
2023-04-16T10:09:38.816Z,36.63
2023-04-16T10:12:06.670Z,36.95
2023-04-16T10:14:36.470Z,36.50
2023-04-16T10:17:04.106Z,38.25
2023-04-16T10:19:32.165Z,37.92
2023-04-16T10:21:59.307Z,38.38
2023-04-16T10:24:26.061Z,39.08
2023-04-16T10:26:53.101Z,38.72
2023-04-16T10:29:23.627Z,43.08
2023-04-16T10:31:51.013Z,40.72
2023-04-16T10:34:18.404Z,40.78
2023-04-16T10:36:49.258Z,40.65
2023-04-16T10:39:22.392Z,41.70
2023-04-16T10:41:50.021Z,43.92
2023-04-16T10:44:19.716Z,41.90
2023-04-16T10:46:51.286Z,42.88
2023-04-16T10:49:24.336Z,39.50
2023-04-16T10:52:07.258Z,39.42
2023-04-16T10:54:35.957Z,41.60
2023-04-16T10:57:08.442Z,42.03
2023-04-16T10:59:37.511Z,40.03
2023-04-16T11:02:11.744Z,44.00
2023-04-16T11:04:40.337Z,40.20
2023-04-16T11:07:19.836Z,39.08
2023-04-16T11:09:53.579Z,41.67
2023-04-16T11:12:22.422Z,43.55
2023-04-16T11:14:50.019Z,43.00
2023-04-16T11:17:17.216Z,41.95
2023-04-16T11:19:44.585Z,42.80
2023-04-16T11:22:17.202Z,40.47
2023-04-16T11:24:46.830Z,41.00
2023-04-16T11:27:16.474Z,41.58
2023-04-16T11:29:45.000Z,41.15
2023-04-16T11:32:21.465Z,42.15
2023-04-16T11:34:48.209Z,42.63
2023-04-16T11:37:14.864Z,41.55
2023-04-16T11:39:49.348Z,39.72
2023-04-16T11:42:22.521Z,41.15
2023-04-16T11:44:56.808Z,40.67
2023-04-16T11:47:24.602Z,39.90
2023-04-16T11:49:51.674Z,39.58
2023-04-16T11:52:32.622Z,39.97
2023-04-16T11:54:59.801Z,40.70
2023-04-16T11:57:31.698Z,40.22
2023-04-16T12:00:01.426Z,40.00
2023-04-16T12:02:40.390Z,39.65
2023-04-16T12:05:28.270Z,38.65
2023-04-16T12:07:55.744Z,36.70
2023-04-16T12:10:22.528Z,37.58
2023-04-16T12:12:49.150Z,39.03
2023-04-16T12:15:16.198Z,39.08
2023-04-16T12:17:42.979Z,40.28
2023-04-16T12:20:14.891Z,39.83
2023-04-16T12:22:47.128Z,38.90
2023-04-16T12:25:16.578Z,41.33
2023-04-16T12:27:55.497Z,40.25
2023-04-16T12:30:24.267Z,39.13
2023-04-16T12:32:53.439Z,40.08
2023-04-16T12:35:34.152Z,39.17
2023-04-16T12:38:01.569Z,39.05
2023-04-16T12:40:28.415Z,39.38
2023-04-16T12:42:55.205Z,41.47
2023-04-16T12:45:22.157Z,40.83
2023-04-16T12:47:50.326Z,40.53
2023-04-16T12:50:17.679Z,41.15
2023-04-16T12:52:44.426Z,41.03
2023-04-16T12:55:11.644Z,41.65
2023-04-16T12:57:38.304Z,39.72
2023-04-16T13:00:06.509Z,42.15
2023-04-16T13:02:34.912Z,42.50
2023-04-16T13:05:01.972Z,40.22
2023-04-16T13:07:31.630Z,43.22
2023-04-16T13:09:58.281Z,41.45
2023-04-16T13:12:24.904Z,42.03
2023-04-16T13:14:51.527Z,41.05
2023-04-16T13:17:18.215Z,42.33
2023-04-16T13:19:45.614Z,41.28
2023-04-16T13:22:12.293Z,40.20
2023-04-16T13:24:39.054Z,40.53
2023-04-16T13:27:07.813Z,41.08
2023-04-16T13:29:36.575Z,38.92
2023-04-16T13:32:04.092Z,40.90
2023-04-16T13:34:31.627Z,40.38
2023-04-16T13:36:58.237Z,37.40
2023-04-16T13:39:25.264Z,37.08
2023-04-16T13:41:51.919Z,36.55
2023-04-16T13:44:18.501Z,36.38
2023-04-16T13:46:47.645Z,35.70
2023-04-16T13:49:14.824Z,36.00
2023-04-16T13:51:44.649Z,34.63
2023-04-16T13:54:11.346Z,35.05
2023-04-16T13:56:40.201Z,33.35
2023-04-16T13:59:07.503Z,33.15
2023-04-16T14:01:34.487Z,33.60
2023-04-16T14:04:05.978Z,33.78
2023-04-16T14:06:33.886Z,33.15
2023-04-16T14:09:01.112Z,33.70
2023-04-16T14:11:27.942Z,31.55
2023-04-16T14:13:54.940Z,35.15
2023-04-16T14:16:21.685Z,31.40
2023-04-16T14:18:48.775Z,34.03
2023-04-16T14:21:15.498Z,34.85
2023-04-16T14:23:42.394Z,32.70
2023-04-16T14:26:09.219Z,34.78
2023-04-16T14:28:36.300Z,33.72
2023-04-16T14:31:02.919Z,36.13
2023-04-16T14:33:29.607Z,33.28
2023-04-16T14:35:56.335Z,35.85
2023-04-16T14:38:22.979Z,36.58
2023-04-16T14:40:49.599Z,35.15
2023-04-16T14:43:16.305Z,36.28
2023-04-16T14:45:43.067Z,34.85
2023-04-16T14:48:09.870Z,33.90
2023-04-16T14:50:37.844Z,33.85
2023-04-16T14:53:07.672Z,33.92
2023-04-16T14:55:34.315Z,34.33
2023-04-16T14:58:01.136Z,35.42
2023-04-16T15:00:27.987Z,36.45
2023-04-16T15:02:55.514Z,35.92
2023-04-16T15:05:22.435Z,39.55
2023-04-16T15:07:49.115Z,39.55
2023-04-16T15:10:16.252Z,37.08
2023-04-16T15:12:42.838Z,39.97
2023-04-16T15:15:10.469Z,38.53
2023-04-16T15:17:37.249Z,36.08
2023-04-16T15:20:10.405Z,39.08
2023-04-16T15:22:37.232Z,39.22
2023-04-16T15:25:05.277Z,38.97
2023-04-16T15:27:31.928Z,39.38
2023-04-16T15:29:58.571Z,39.72
2023-04-16T15:32:25.354Z,36.95
2023-04-16T15:34:52.080Z,36.67
2023-04-16T15:37:18.793Z,38.03
2023-04-16T15:39:45.663Z,38.25
2023-04-16T15:42:12.973Z,37.47
2023-04-16T15:44:40.280Z,41.00
2023-04-16T15:47:08.409Z,40.22
2023-04-16T15:49:35.943Z,39.33
2023-04-16T15:52:02.929Z,39.85
2023-04-16T15:54:30.528Z,40.70
2023-04-16T15:56:58.571Z,40.72
2023-04-16T15:59:26.200Z,40.78
2023-04-16T16:01:52.901Z,40.17
2023-04-16T16:04:22.650Z,41.40
2023-04-16T16:06:50.259Z,39.88
2023-04-16T16:09:16.983Z,37.40
2023-04-16T16:11:43.759Z,38.15
2023-04-16T16:14:10.761Z,41.08
2023-04-16T16:16:37.601Z,40.47
2023-04-16T16:19:04.477Z,39.70
2023-04-16T16:21:32.403Z,41.75
2023-04-16T16:23:59.055Z,40.67
2023-04-16T16:26:26.191Z,41.88
2023-04-16T16:28:53.135Z,41.47
2023-04-16T16:31:19.920Z,40.80
2023-04-16T16:33:46.785Z,40.10
2023-04-16T16:36:13.430Z,41.42
2023-04-16T16:38:41.093Z,41.35
2023-04-16T16:41:08.215Z,40.35
2023-04-16T16:43:36.550Z,40.20
2023-04-16T16:46:03.390Z,40.70
2023-04-16T16:48:30.070Z,40.30
2023-04-16T16:50:56.943Z,41.42
2023-04-16T16:53:23.637Z,38.17
2023-04-16T16:55:51.452Z,38.75
2023-04-16T16:58:18.433Z,40.05
2023-04-16T17:00:45.121Z,41.85
2023-04-16T17:03:12.051Z,40.33
2023-04-16T17:05:38.777Z,38.30
2023-04-16T17:08:06.497Z,41.85
2023-04-16T17:10:34.841Z,39.22
2023-04-16T17:13:01.532Z,43.15
2023-04-16T17:15:28.262Z,42.38
2023-04-16T17:17:55.017Z,43.17
2023-04-16T17:20:21.674Z,39.88
2023-04-16T17:22:48.461Z,41.42
2023-04-16T17:25:15.498Z,42.25
2023-04-16T17:27:42.117Z,41.78
2023-04-16T17:30:09.226Z,42.92
2023-04-16T17:32:35.966Z,40.53
2023-04-16T17:35:04.166Z,40.90
2023-04-16T17:37:31.307Z,40.97
2023-04-16T17:39:57.988Z,41.97
2023-04-16T17:42:24.794Z,44.28
2023-04-16T17:44:51.787Z,41.40
2023-04-16T17:47:18.435Z,42.85
2023-04-16T17:49:45.260Z,44.70
2023-04-16T17:52:11.925Z,41.50
2023-04-16T17:54:38.539Z,43.20
2023-04-16T17:57:05.199Z,41.60
2023-04-16T17:59:31.817Z,40.95
2023-04-16T18:01:58.470Z,52.15
2023-04-16T18:04:25.300Z,46.92
2023-04-16T18:06:52.008Z,45.50
2023-04-16T18:09:19.450Z,45.65
2023-04-16T18:11:46.199Z,44.55
2023-04-16T18:14:20.328Z,42.08
2023-04-16T18:16:47.918Z,42.05
2023-04-16T18:19:16.128Z,42.38
2023-04-16T18:21:43.436Z,45.13
2023-04-16T18:24:10.641Z,43.53
2023-04-16T18:26:37.699Z,44.38
2023-04-16T18:29:04.699Z,44.72
2023-04-16T18:31:31.438Z,44.65
2023-04-16T18:33:58.666Z,43.63
2023-04-16T18:36:26.531Z,44.38
2023-04-16T18:39:01.662Z,48.28
2023-04-16T18:41:29.616Z,45.15
2023-04-16T18:43:56.529Z,43.47
2023-04-16T18:46:23.376Z,43.65
2023-04-16T18:48:50.066Z,43.45
2023-04-16T18:51:16.904Z,44.10
2023-04-16T18:53:48.280Z,44.55
2023-04-16T18:56:15.286Z,42.83
2023-04-16T18:58:43.073Z,41.58
2023-04-16T19:01:12.840Z,38.95
2023-04-16T19:03:39.711Z,42.08
2023-04-16T19:06:06.559Z,43.47
2023-04-16T19:08:33.220Z,43.88
2023-04-16T19:11:00.221Z,41.08
2023-04-16T19:13:26.908Z,42.65
2023-04-16T19:16:01.498Z,40.22
2023-04-16T19:18:28.272Z,40.88
2023-04-16T19:21:01.379Z,41.53
2023-04-16T19:23:28.587Z,40.83
2023-04-16T19:25:58.614Z,40.65
2023-04-16T19:28:25.750Z,41.60
2023-04-16T19:30:55.795Z,41.05
2023-04-16T19:33:22.432Z,38.63
2023-04-16T19:35:49.065Z,39.20
2023-04-16T19:38:15.785Z,41.20
2023-04-16T19:40:46.603Z,41.67
2023-04-16T19:43:13.834Z,41.05
2023-04-16T19:45:44.438Z,40.38
2023-04-16T19:48:11.601Z,42.00
2023-04-16T19:50:42.230Z,40.22
2023-04-16T19:53:09.363Z,39.10
2023-04-16T19:55:36.685Z,40.15
2023-04-16T19:58:06.462Z,28.58
2023-04-16T20:00:34.588Z,28.85
2023-04-16T20:03:01.253Z,27.55
2023-04-16T20:05:28.956Z,28.20
2023-04-16T20:07:56.314Z,30.52
2023-04-16T20:10:23.765Z,30.98
2023-04-16T20:12:51.443Z,29.05
2023-04-16T20:15:19.059Z,29.55
2023-04-16T20:17:46.030Z,29.35
2023-04-16T20:20:15.432Z,29.35
2023-04-16T20:22:42.827Z,30.70
2023-04-16T20:25:10.248Z,30.88
2023-04-16T20:27:37.054Z,30.35
2023-04-16T20:30:05.284Z,32.33
2023-04-16T20:32:32.215Z,32.05
2023-04-16T20:34:59.579Z,33.33
2023-04-16T20:37:28.604Z,33.40
2023-04-16T20:39:55.984Z,33.63
2023-04-16T20:42:23.102Z,35.28
2023-04-16T20:44:56.164Z,33.65
2023-04-16T20:47:22.986Z,33.50
2023-04-16T20:49:49.811Z,32.05
2023-04-16T20:52:16.727Z,33.08
2023-04-16T20:54:43.511Z,31.65
2023-04-16T20:57:10.111Z,33.38
2023-04-16T20:59:36.867Z,30.90
2023-04-16T21:02:03.681Z,32.45
2023-04-16T21:04:30.533Z,33.53
2023-04-16T21:06:57.355Z,33.47
2023-04-16T21:09:24.092Z,33.97
2023-04-16T21:11:50.944Z,35.28
2023-04-16T21:14:17.537Z,34.20
2023-04-16T21:16:44.209Z,35.38
2023-04-16T21:19:11.520Z,36.03
2023-04-16T21:21:38.704Z,37.45
2023-04-16T21:24:06.050Z,37.83
2023-04-16T21:26:32.678Z,39.30
2023-04-16T21:28:59.315Z,40.30
2023-04-16T21:31:26.057Z,36.78
2023-04-16T21:33:52.813Z,39.42
2023-04-16T21:36:19.465Z,36.53
2023-04-16T21:38:46.146Z,40.45
2023-04-16T21:41:12.781Z,40.15
2023-04-16T21:43:39.394Z,38.83
2023-04-16T21:46:06.055Z,39.22
2023-04-16T21:48:32.657Z,38.30
2023-04-16T21:51:08.153Z,39.53
2023-04-16T21:53:35.208Z,38.10
2023-04-16T21:56:01.876Z,38.30
2023-04-16T21:58:28.492Z,39.58
2023-04-16T22:00:55.175Z,37.28
2023-04-16T22:03:26.097Z,39.13
2023-04-16T22:06:01.397Z,38.80
2023-04-16T22:08:31.567Z,38.90
2023-04-16T22:11:02.503Z,39.92
2023-04-16T22:13:32.088Z,40.85
2023-04-16T22:16:02.001Z,41.42
2023-04-16T22:18:32.652Z,38.38
2023-04-16T22:20:59.363Z,38.75
2023-04-16T22:23:26.323Z,38.65
2023-04-16T22:25:55.291Z,39.50
2023-04-16T22:28:22.725Z,41.20
2023-04-16T22:30:49.401Z,42.25
2023-04-16T22:33:16.201Z,41.90
2023-04-16T22:35:43.277Z,41.25
2023-04-16T22:38:10.450Z,39.35
2023-04-16T22:40:37.161Z,40.53
2023-04-16T22:43:04.025Z,41.22
2023-04-16T22:45:30.974Z,42.20
2023-04-16T22:47:57.655Z,42.33
2023-04-16T22:50:24.362Z,41.65
2023-04-16T22:52:50.948Z,43.50
2023-04-16T22:55:17.655Z,42.72
2023-04-16T22:57:44.462Z,40.83
2023-04-16T23:00:15.704Z,41.28
2023-04-16T23:02:42.846Z,41.38
2023-04-16T23:05:10.233Z,42.20
2023-04-16T23:07:37.144Z,42.47
2023-04-16T23:10:04.065Z,42.25
2023-04-16T23:12:31.101Z,42.55
2023-04-16T23:14:58.151Z,43.17
2023-04-16T23:17:24.839Z,43.17
2023-04-16T23:19:51.488Z,42.05
2023-04-16T23:22:18.096Z,45.22
2023-04-16T23:24:44.757Z,43.35
2023-04-16T23:27:11.527Z,43.28
2023-04-16T23:29:38.127Z,44.20
2023-04-16T23:32:04.916Z,44.47
2023-04-16T23:34:31.539Z,42.55
2023-04-16T23:36:58.139Z,41.85
2023-04-16T23:39:24.726Z,42.88
2023-04-16T23:41:51.305Z,42.17
2023-04-16T23:44:17.880Z,42.22
2023-04-16T23:46:44.865Z,41.20
2023-04-16T23:49:11.717Z,41.22
2023-04-16T23:51:38.457Z,41.75
2023-04-16T23:54:05.229Z,43.30
2023-04-16T23:56:31.884Z,41.03
2023-04-16T23:58:58.610Z,43.28
